Kenyon, Rhode Island
Current Conditions -  °F | °C
As of 4:53 AM on Thursday 29 Jan 2015 (Local Time) from KWST Reporting Station
Clear Clear  
Wind Chill:   Ceiling: Unl
Heat Index:   Visibility: 10mi
Dew Point: -3°   Wind: 5mph
Humidity: 59%   Direction: 40°NE
Pressure: 30.29"   Gusts: NA
Location:  41.45°N, 71.63°W
Report Text: KWST 290953Z AUTO 04004KT 10SM CLR M13/M19 A3029 RMK AO2 SLP259 T11281194
Loading
Personal Weather Stations






























Interactive Weather Map New forecast layout! Learn more

10-Day Weather Forecast

Advertisements
Track Severe Weather on mobile